createdAt,value
2019-03-27T00:00:07.918Z,1024.70
2019-03-27T00:01:07.907Z,1024.62
2019-03-27T00:02:07.893Z,1024.64
2019-03-27T00:03:07.923Z,1024.64
2019-03-27T00:04:07.909Z,1024.63
2019-03-27T00:05:07.865Z,1024.61
2019-03-27T00:06:07.858Z,1024.65
2019-03-27T00:07:07.840Z,1024.62
2019-03-27T00:08:07.831Z,1024.61
2019-03-27T00:09:07.860Z,1024.59
2019-03-27T00:10:07.813Z,1024.58
2019-03-27T00:11:07.799Z,1024.61
2019-03-27T00:12:07.783Z,1024.58
2019-03-27T00:13:07.773Z,1024.59
2019-03-27T00:14:07.773Z,1024.57
2019-03-27T00:15:13.415Z,1024.54
2019-03-27T00:16:07.745Z,1024.50
2019-03-27T00:17:07.731Z,1024.49
2019-03-27T00:18:07.721Z,1024.47
2019-03-27T00:19:07.741Z,1024.50
2019-03-27T00:20:07.696Z,1024.49
2019-03-27T00:21:07.677Z,1024.46
2019-03-27T00:22:07.675Z,1024.47
2019-03-27T00:23:07.665Z,1024.45
2019-03-27T00:24:07.666Z,1024.44
2019-03-27T00:25:07.646Z,1024.49
2019-03-27T00:26:07.625Z,1024.48
2019-03-27T00:27:07.620Z,1024.50
2019-03-27T00:28:07.692Z,1024.46
2019-03-27T00:29:07.610Z,1024.49
2019-03-27T00:30:07.594Z,1024.45
2019-03-27T00:31:07.575Z,1024.50
2019-03-27T00:32:07.582Z,1024.47
2019-03-27T00:33:07.550Z,1024.47
2019-03-27T00:34:07.599Z,1024.46
2019-03-27T00:35:07.557Z,1024.44
2019-03-27T00:36:07.519Z,1024.47
2019-03-27T00:37:07.507Z,1024.43
2019-03-27T00:38:07.499Z,1024.45
2019-03-27T00:39:07.502Z,1024.47
2019-03-27T00:40:07.477Z,1024.44
2019-03-27T00:41:07.461Z,1024.45
2019-03-27T00:42:07.446Z,1024.46
2019-03-27T00:43:07.458Z,1024.47
2019-03-27T00:44:07.439Z,1024.44
2019-03-27T00:45:07.424Z,1024.46
2019-03-27T00:46:07.404Z,1024.42
2019-03-27T00:47:07.390Z,1024.48
2019-03-27T00:48:07.484Z,1024.46
2019-03-27T00:49:07.401Z,1024.45
2019-03-27T00:50:07.379Z,1024.45
2019-03-27T00:51:07.350Z,1024.45
2019-03-27T00:52:07.346Z,1024.43
2019-03-27T00:53:07.326Z,1024.46
2019-03-27T00:54:07.332Z,1024.49
2019-03-27T00:55:07.305Z,1024.50
2019-03-27T00:56:07.308Z,1024.51
2019-03-27T00:57:07.308Z,1024.48
2019-03-27T00:58:07.309Z,1024.44
2019-03-27T00:59:07.279Z,1024.47
2019-03-27T01:00:07.245Z,1024.46
2019-03-27T01:01:07.235Z,1024.43
2019-03-27T01:02:07.241Z,1024.40
2019-03-27T01:03:07.230Z,1024.40
2019-03-27T01:04:07.231Z,1024.35
2019-03-27T01:05:07.220Z,1024.36
2019-03-27T01:06:07.177Z,1024.38
2019-03-27T01:07:07.170Z,1024.40
2019-03-27T01:08:07.160Z,1024.47
2019-03-27T01:09:07.263Z,1024.45
2019-03-27T01:10:07.137Z,1024.46
2019-03-27T01:11:07.184Z,1024.46
2019-03-27T01:12:07.115Z,1024.47
2019-03-27T01:13:07.104Z,1024.43
2019-03-27T01:14:07.090Z,1024.42
2019-03-27T01:15:07.103Z,1024.40
2019-03-27T01:16:07.073Z,1024.38
2019-03-27T01:17:07.083Z,1024.40
2019-03-27T01:18:07.049Z,1024.41
2019-03-27T01:19:07.035Z,1024.44
2019-03-27T01:20:07.026Z,1024.42
2019-03-27T01:21:07.015Z,1024.45
2019-03-27T01:22:07.000Z,1024.42
2019-03-27T01:23:06.988Z,1024.47
2019-03-27T01:24:06.978Z,1024.47
2019-03-27T01:25:06.999Z,1024.47
2019-03-27T01:26:06.959Z,1024.50
2019-03-27T01:27:06.943Z,1024.46
2019-03-27T01:28:06.942Z,1024.45
2019-03-27T01:29:06.928Z,1024.44
2019-03-27T01:30:06.927Z,1024.49
2019-03-27T01:31:06.932Z,1024.44
2019-03-27T01:32:06.888Z,1024.38
2019-03-27T01:33:06.877Z,1024.43
2019-03-27T01:34:06.872Z,1024.42
2019-03-27T01:35:06.869Z,1024.42
2019-03-27T01:36:06.846Z,1024.41
2019-03-27T01:37:06.904Z,1024.43
2019-03-27T01:38:06.817Z,1024.43
2019-03-27T01:39:06.809Z,1024.43
2019-03-27T01:40:06.825Z,1024.43
2019-03-27T01:41:06.809Z,1024.43
2019-03-27T01:42:06.782Z,1024.43
2019-03-27T01:43:06.780Z,1024.38
2019-03-27T01:44:06.758Z,1024.39
2019-03-27T01:45:06.757Z,1024.42
2019-03-27T01:46:06.739Z,1024.40
2019-03-27T01:47:06.742Z,1024.36
2019-03-27T01:48:06.712Z,1024.40
2019-03-27T01:49:06.708Z,1024.38
2019-03-27T01:50:06.700Z,1024.35
2019-03-27T01:51:06.871Z,1024.39
2019-03-27T01:52:08.120Z,1024.40
2019-03-27T01:53:06.662Z,1024.45
2019-03-27T01:54:06.721Z,1024.41
2019-03-27T01:55:06.645Z,1024.46
2019-03-27T01:56:06.627Z,1024.47
2019-03-27T01:57:06.609Z,1024.45
2019-03-27T01:58:06.600Z,1024.44
2019-03-27T01:59:06.606Z,1024.42
2019-03-27T02:00:07.260Z,1024.46
2019-03-27T02:01:06.567Z,1024.42
2019-03-27T02:02:06.578Z,1024.41
2019-03-27T02:03:06.547Z,1024.46
2019-03-27T02:04:06.551Z,1024.38
2019-03-27T02:05:06.533Z,1024.37
2019-03-27T02:06:06.521Z,1024.40
2019-03-27T02:07:06.508Z,1024.44
2019-03-27T02:08:06.483Z,1024.39
2019-03-27T02:09:06.477Z,1024.40
2019-03-27T02:10:06.468Z,1024.40
2019-03-27T02:11:06.471Z,1024.42
2019-03-27T02:12:06.446Z,1024.39
2019-03-27T02:13:06.444Z,1024.45
2019-03-27T02:14:06.422Z,1024.44
2019-03-27T02:15:06.411Z,1024.43
2019-03-27T02:16:07.494Z,1024.46
2019-03-27T02:17:06.401Z,1024.49
2019-03-27T02:18:06.385Z,1024.46
2019-03-27T02:19:06.362Z,1024.48
2019-03-27T02:20:06.353Z,1024.43
2019-03-27T02:21:06.356Z,1024.51
2019-03-27T02:22:06.326Z,1024.50
2019-03-27T02:23:06.317Z,1024.51
2019-03-27T02:24:06.310Z,1024.55
2019-03-27T02:25:06.293Z,1024.53
2019-03-27T02:26:06.295Z,1024.49
2019-03-27T02:27:06.291Z,1024.56
2019-03-27T02:28:06.269Z,1024.50
2019-03-27T02:29:06.244Z,1024.57
2019-03-27T02:30:06.253Z,1024.55
2019-03-27T02:31:06.242Z,1024.58
2019-03-27T02:32:06.216Z,1024.57
2019-03-27T02:33:06.225Z,1024.59
2019-03-27T02:34:06.212Z,1024.61
2019-03-27T02:35:06.183Z,1024.61
2019-03-27T02:36:06.311Z,1024.62
2019-03-27T02:37:06.160Z,1024.67
2019-03-27T02:38:06.147Z,1024.65
2019-03-27T02:39:06.162Z,1024.63
2019-03-27T02:40:06.256Z,1024.62
2019-03-27T02:41:06.115Z,1024.65
2019-03-27T02:42:06.111Z,1024.63
2019-03-27T02:43:06.095Z,1024.69
2019-03-27T02:44:06.093Z,1024.60
2019-03-27T02:45:06.079Z,1024.67
2019-03-27T02:46:23.263Z,1024.61
2019-03-27T02:47:06.056Z,1024.61
2019-03-27T02:48:06.040Z,1024.64
2019-03-27T02:49:06.034Z,1024.64
2019-03-27T02:50:06.027Z,1024.64
2019-03-27T02:51:06.011Z,1024.62
2019-03-27T02:52:06.026Z,1024.62
2019-03-27T02:53:06.020Z,1024.63
2019-03-27T02:54:05.978Z,1024.61
2019-03-27T02:55:05.989Z,1024.59
2019-03-27T02:56:06.066Z,1024.65
2019-03-27T02:57:05.953Z,1024.61
2019-03-27T02:58:05.932Z,1024.64
2019-03-27T02:59:05.926Z,1024.64
2019-03-27T03:00:05.935Z,1024.58
2019-03-27T03:01:05.899Z,1024.55
2019-03-27T03:02:05.905Z,1024.57
2019-03-27T03:03:05.907Z,1024.55
2019-03-27T03:04:05.872Z,1024.56
2019-03-27T03:05:05.855Z,1024.52
2019-03-27T03:06:05.939Z,1024.52
2019-03-27T03:07:05.875Z,1024.54
2019-03-27T03:08:05.849Z,1024.55
2019-03-27T03:09:05.831Z,1024.56
2019-03-27T03:10:05.803Z,1024.57
2019-03-27T03:11:05.785Z,1024.50
2019-03-27T03:12:05.793Z,1024.49
2019-03-27T03:13:05.793Z,1024.53
2019-03-27T03:14:05.774Z,1024.51
2019-03-27T03:15:05.755Z,1024.50
2019-03-27T03:16:05.745Z,1024.51
2019-03-27T03:17:05.733Z,1024.55
2019-03-27T03:18:05.742Z,1024.52
2019-03-27T03:19:05.729Z,1024.51
2019-03-27T03:20:05.684Z,1024.49
2019-03-27T03:21:05.677Z,1024.51
2019-03-27T03:22:05.684Z,1024.49
2019-03-27T03:23:05.680Z,1024.47
2019-03-27T03:24:05.653Z,1024.48
2019-03-27T03:25:05.632Z,1024.45
2019-03-27T03:26:05.630Z,1024.43
2019-03-27T03:27:05.636Z,1024.45
2019-03-27T03:28:05.596Z,1024.46
2019-03-27T03:29:05.602Z,1024.43
2019-03-27T03:30:05.574Z,1024.42
2019-03-27T03:31:05.574Z,1024.45
2019-03-27T03:32:05.591Z,1024.46
2019-03-27T03:33:05.561Z,1024.46
2019-03-27T03:34:05.531Z,1024.47
2019-03-27T03:35:05.530Z,1024.50
2019-03-27T03:36:05.516Z,1024.53
2019-03-27T03:37:05.667Z,1024.49
2019-03-27T03:38:05.489Z,1024.44
2019-03-27T03:39:05.472Z,1024.48
2019-03-27T03:40:05.507Z,1024.49
2019-03-27T03:41:05.460Z,1024.47
2019-03-27T03:42:06.467Z,1024.50
2019-03-27T03:43:05.432Z,1024.51
2019-03-27T03:44:05.428Z,1024.49
2019-03-27T03:45:05.410Z,1024.50
2019-03-27T03:46:05.399Z,1024.45
2019-03-27T03:47:05.405Z,1024.46
2019-03-27T03:48:05.432Z,1024.48
2019-03-27T03:49:05.366Z,1024.49
2019-03-27T03:50:05.363Z,1024.50
2019-03-27T03:51:05.360Z,1024.53
2019-03-27T03:52:05.347Z,1024.51
2019-03-27T03:53:05.322Z,1024.55
2019-03-27T03:54:05.309Z,1024.58
2019-03-27T03:55:05.304Z,1024.57
2019-03-27T03:56:05.289Z,1024.53
2019-03-27T03:57:05.293Z,1024.58
2019-03-27T03:58:05.273Z,1024.57
2019-03-27T03:59:05.253Z,1024.56
2019-03-27T04:00:05.243Z,1024.54
2019-03-27T04:01:05.280Z,1024.55
2019-03-27T04:02:05.253Z,1024.53
2019-03-27T04:03:05.254Z,1024.60
2019-03-27T04:04:05.197Z,1024.59
2019-03-27T04:05:05.198Z,1024.61
2019-03-27T04:06:05.186Z,1024.60
2019-03-27T04:07:05.187Z,1024.61
2019-03-27T04:08:05.175Z,1024.62
2019-03-27T04:09:05.162Z,1024.61
2019-03-27T04:10:05.161Z,1024.64
2019-03-27T04:11:05.119Z,1024.65
2019-03-27T04:12:05.123Z,1024.63
2019-03-27T04:13:05.110Z,1024.64
2019-03-27T04:14:05.106Z,1024.66
2019-03-27T04:15:05.081Z,1024.68
2019-03-27T04:16:05.068Z,1024.68
2019-03-27T04:17:16.998Z,1024.68
2019-03-27T04:18:05.091Z,1024.73
2019-03-27T04:19:05.070Z,1024.71
2019-03-27T04:20:05.033Z,1024.72
2019-03-27T04:21:05.024Z,1024.70
2019-03-27T04:22:05.000Z,1024.69
2019-03-27T04:23:05.012Z,1024.65
2019-03-27T04:24:04.997Z,1024.68
2019-03-27T04:25:04.970Z,1024.64
2019-03-27T04:26:10.398Z,1024.72
2019-03-27T04:27:04.953Z,1024.72
2019-03-27T04:28:04.978Z,1024.76
2019-03-27T04:29:04.924Z,1024.76
2019-03-27T04:30:04.920Z,1024.72
2019-03-27T04:31:04.911Z,1024.75
2019-03-27T04:32:04.909Z,1024.78
2019-03-27T04:33:04.928Z,1024.77
2019-03-27T04:34:04.870Z,1024.73
2019-03-27T04:35:04.857Z,1024.77
2019-03-27T04:36:04.852Z,1024.79
2019-03-27T04:37:04.834Z,1024.76
2019-03-27T04:38:04.863Z,1024.81
2019-03-27T04:39:04.838Z,1024.79
2019-03-27T04:40:04.816Z,1024.83
2019-03-27T04:41:04.804Z,1024.80
2019-03-27T04:42:04.782Z,1024.84
2019-03-27T04:43:04.821Z,1024.86
2019-03-27T04:44:04.769Z,1024.90
2019-03-27T04:45:04.753Z,1024.91
2019-03-27T04:46:04.740Z,1024.93
2019-03-27T04:47:04.724Z,1024.95
2019-03-27T04:48:04.742Z,1024.98
2019-03-27T04:49:07.744Z,1024.99
2019-03-27T04:50:04.692Z,1025.01
2019-03-27T04:51:04.674Z,1024.95
2019-03-27T04:52:04.666Z,1024.95
2019-03-27T04:53:04.691Z,1024.95
2019-03-27T04:54:04.672Z,1024.98
2019-03-27T04:55:04.636Z,1025.01
2019-03-27T04:56:04.636Z,1025.03
2019-03-27T04:57:04.621Z,1025.08
2019-03-27T04:58:04.683Z,1025.05
2019-03-27T04:59:04.595Z,1025.10
2019-03-27T05:00:04.594Z,1025.05
2019-03-27T05:01:04.560Z,1025.11
2019-03-27T05:02:06.602Z,1025.10
2019-03-27T05:03:04.575Z,1025.15
2019-03-27T05:04:04.534Z,1025.21
2019-03-27T05:05:04.523Z,1025.22
2019-03-27T05:06:04.548Z,1025.23
2019-03-27T05:07:04.510Z,1025.25
2019-03-27T05:08:04.499Z,1025.22
2019-03-27T05:09:04.478Z,1025.20
2019-03-27T05:10:04.462Z,1025.22
2019-03-27T05:11:04.453Z,1025.19
2019-03-27T05:12:04.447Z,1025.19
2019-03-27T05:13:05.532Z,1025.16
2019-03-27T05:14:04.433Z,1025.17
2019-03-27T05:15:04.408Z,1025.20
2019-03-27T05:16:04.400Z,1025.20
2019-03-27T05:17:04.387Z,1025.20
2019-03-27T05:18:04.388Z,1025.20
2019-03-27T05:19:04.364Z,1025.17
2019-03-27T05:20:04.352Z,1025.21
2019-03-27T05:21:04.338Z,1025.21
2019-03-27T05:22:04.333Z,1025.22
2019-03-27T05:23:04.337Z,1025.21
2019-03-27T05:24:04.328Z,1025.24
2019-03-27T05:25:04.319Z,1025.29
2019-03-27T05:26:04.284Z,1025.28
2019-03-27T05:27:04.278Z,1025.28
2019-03-27T05:28:04.276Z,1025.29
2019-03-27T05:29:04.256Z,1025.29
2019-03-27T05:30:04.246Z,1025.30
2019-03-27T05:31:04.233Z,1025.28
2019-03-27T05:32:04.216Z,1025.26
2019-03-27T05:33:04.223Z,1025.30
2019-03-27T05:34:04.198Z,1025.30
2019-03-27T05:35:04.208Z,1025.30
2019-03-27T05:36:04.167Z,1025.28
2019-03-27T05:37:04.158Z,1025.29
2019-03-27T05:38:04.248Z,1025.31
2019-03-27T05:39:04.136Z,1025.29
2019-03-27T05:40:04.387Z,1025.26
2019-03-27T05:41:04.118Z,1025.26
2019-03-27T05:42:04.123Z,1025.25
2019-03-27T05:43:04.097Z,1025.25
2019-03-27T05:44:04.081Z,1025.24
2019-03-27T05:45:04.080Z,1025.23
2019-03-27T05:46:04.066Z,1025.21
2019-03-27T05:47:04.067Z,1025.22
2019-03-27T05:48:04.047Z,1025.23
2019-03-27T05:49:04.032Z,1025.23
2019-03-27T05:50:04.021Z,1025.23
2019-03-27T05:51:04.007Z,1025.23
2019-03-27T05:52:04.019Z,1025.23
2019-03-27T05:53:03.988Z,1025.24
2019-03-27T05:54:04.007Z,1025.23
2019-03-27T05:55:03.973Z,1025.27
2019-03-27T05:56:03.951Z,1025.23
2019-03-27T05:57:03.940Z,1025.26
2019-03-27T05:58:03.926Z,1025.28
2019-03-27T05:59:03.930Z,1025.30
2019-03-27T06:00:03.914Z,1025.28
2019-03-27T06:01:03.895Z,1025.33
2019-03-27T06:02:04.818Z,1025.31
2019-03-27T06:03:03.895Z,1025.38
2019-03-27T06:04:03.882Z,1025.41
2019-03-27T06:05:03.863Z,1025.47
2019-03-27T06:06:03.837Z,1025.49
2019-03-27T06:07:03.833Z,1025.48
2019-03-27T06:08:03.819Z,1025.49
2019-03-27T06:09:03.831Z,1025.47
2019-03-27T06:10:03.813Z,1025.49
2019-03-27T06:11:03.788Z,1025.47
2019-03-27T06:12:03.777Z,1025.51
2019-03-27T06:13:03.760Z,1025.60
2019-03-27T06:14:03.787Z,1025.61
2019-03-27T06:15:03.747Z,1025.64
2019-03-27T06:16:03.733Z,1025.69
2019-03-27T06:17:03.730Z,1025.70
2019-03-27T06:18:13.124Z,1025.72
2019-03-27T06:19:03.709Z,1025.74
2019-03-27T06:20:03.687Z,1025.74
2019-03-27T06:21:03.680Z,1025.75
2019-03-27T06:22:03.662Z,1025.76
2019-03-27T06:23:03.648Z,1025.75
2019-03-27T06:24:03.654Z,1025.79
2019-03-27T06:25:03.631Z,1025.78
2019-03-27T06:26:03.638Z,1025.79
2019-03-27T06:27:03.614Z,1025.80
2019-03-27T06:28:03.595Z,1025.85
2019-03-27T06:29:03.598Z,1025.83
2019-03-27T06:30:03.571Z,1025.83
2019-03-27T06:31:03.584Z,1025.82
2019-03-27T06:32:03.559Z,1025.88
2019-03-27T06:33:03.554Z,1025.79
2019-03-27T06:34:03.551Z,1025.88
2019-03-27T06:35:03.510Z,1025.87
2019-03-27T06:36:03.520Z,1025.88
2019-03-27T06:37:03.543Z,1025.83
2019-03-27T06:38:03.484Z,1025.82
2019-03-27T06:39:03.490Z,1025.80
2019-03-27T06:40:03.460Z,1025.85
2019-03-27T06:41:03.453Z,1025.80
2019-03-27T06:42:03.435Z,1025.81
2019-03-27T06:43:03.429Z,1025.82
2019-03-27T06:44:04.327Z,1025.79
2019-03-27T06:45:03.437Z,1025.79
2019-03-27T06:46:03.409Z,1025.83
2019-03-27T06:47:03.389Z,1025.80
2019-03-27T06:48:03.379Z,1025.80
2019-03-27T06:49:03.394Z,1025.80
2019-03-27T06:50:03.382Z,1025.84
2019-03-27T06:51:03.350Z,1025.83
2019-03-27T06:52:07.760Z,1025.83
2019-03-27T06:53:03.312Z,1025.78
2019-03-27T06:54:03.319Z,1025.83
2019-03-27T06:55:03.340Z,1025.84
2019-03-27T06:56:03.316Z,1025.85
2019-03-27T06:57:03.286Z,1025.73
2019-03-27T06:58:03.274Z,1025.89
2019-03-27T06:59:03.254Z,1025.87
2019-03-27T07:00:04.261Z,1025.89
2019-03-27T07:01:03.255Z,1025.94
2019-03-27T07:02:03.234Z,1025.92
2019-03-27T07:03:03.214Z,1025.88
2019-03-27T07:04:10.293Z,1025.92
2019-03-27T07:05:03.396Z,1025.93
2019-03-27T07:06:03.182Z,1025.96
2019-03-27T07:07:03.170Z,1025.97
2019-03-27T07:08:03.155Z,1026.01
2019-03-27T07:09:03.143Z,1026.02
2019-03-27T07:10:03.149Z,1026.02
2019-03-27T07:11:03.120Z,1026.02
2019-03-27T07:12:03.130Z,1026.02
2019-03-27T07:13:03.098Z,1026.09
2019-03-27T07:14:03.088Z,1026.09
2019-03-27T07:15:03.097Z,1026.08
2019-03-27T07:16:03.068Z,1026.10
2019-03-27T07:17:03.064Z,1026.11
2019-03-27T07:18:03.057Z,1026.13
2019-03-27T07:19:03.048Z,1026.05
2019-03-27T07:20:03.017Z,1026.09
2019-03-27T07:21:03.040Z,1026.12
2019-03-27T07:22:03.060Z,1026.15
2019-03-27T07:23:02.999Z,1026.20
2019-03-27T07:24:03.016Z,1026.18
2019-03-27T07:25:02.995Z,1026.19
2019-03-27T07:26:02.975Z,1026.20
2019-03-27T07:27:02.947Z,1026.22
2019-03-27T07:28:02.955Z,1026.24
2019-03-27T07:29:02.946Z,1026.25
2019-03-27T07:30:02.939Z,1026.23
2019-03-27T07:31:02.957Z,1026.25
2019-03-27T07:32:02.937Z,1026.27
2019-03-27T07:33:02.901Z,1026.27
2019-03-27T07:34:02.877Z,1026.29
2019-03-27T07:35:02.871Z,1026.29
2019-03-27T07:36:02.863Z,1026.31
2019-03-27T07:37:02.859Z,1026.32
2019-03-27T07:38:02.828Z,1026.35
2019-03-27T07:39:10.971Z,1026.35
2019-03-27T07:40:02.799Z,1026.28
2019-03-27T07:41:02.810Z,1026.25
2019-03-27T07:42:03.618Z,1026.22
2019-03-27T07:43:02.782Z,1026.23
2019-03-27T07:44:02.778Z,1026.27
2019-03-27T07:45:02.765Z,1026.22
2019-03-27T07:46:02.773Z,1026.30
2019-03-27T07:47:02.726Z,1026.28
2019-03-27T07:48:02.722Z,1026.29
2019-03-27T07:49:02.717Z,1026.24
2019-03-27T07:50:02.694Z,1026.30
2019-03-27T07:51:02.721Z,1026.22
2019-03-27T07:52:02.688Z,1026.24
2019-03-27T07:53:02.666Z,1026.25
2019-03-27T07:54:02.653Z,1026.25
2019-03-27T07:55:02.650Z,1026.24
2019-03-27T07:56:02.646Z,1026.21
2019-03-27T07:57:02.654Z,1026.18
2019-03-27T07:58:02.608Z,1026.20
2019-03-27T07:59:02.620Z,1026.22
2019-03-27T08:00:02.592Z,1026.19
2019-03-27T08:01:02.599Z,1026.25
2019-03-27T08:02:02.584Z,1026.23
2019-03-27T08:03:02.621Z,1026.24
2019-03-27T08:04:02.565Z,1026.24
2019-03-27T08:05:02.541Z,1026.18
2019-03-27T08:06:02.533Z,1026.28
2019-03-27T08:07:02.517Z,1026.26
2019-03-27T08:08:02.503Z,1026.26
2019-03-27T08:09:02.480Z,1026.20
2019-03-27T08:10:02.486Z,1026.24
2019-03-27T08:11:02.472Z,1026.22
2019-03-27T08:12:02.464Z,1026.20
2019-03-27T08:13:02.463Z,1026.20
2019-03-27T08:14:02.442Z,1026.20
2019-03-27T08:15:02.443Z,1026.20
2019-03-27T08:16:02.424Z,1026.20
2019-03-27T08:17:02.401Z,1026.19
2019-03-27T08:18:02.415Z,1026.20
2019-03-27T08:19:07.707Z,1026.24
2019-03-27T08:20:02.370Z,1026.22
2019-03-27T08:21:02.361Z,1026.23
2019-03-27T08:22:02.354Z,1026.23
2019-03-27T08:23:02.350Z,1026.23
2019-03-27T08:24:02.336Z,1026.25
2019-03-27T08:25:02.328Z,1026.20
2019-03-27T08:26:02.312Z,1026.26
2019-03-27T08:27:02.313Z,1026.23
2019-03-27T08:28:02.290Z,1026.25
2019-03-27T08:29:02.270Z,1026.30
2019-03-27T08:30:02.252Z,1026.36
2019-03-27T08:31:02.274Z,1026.33
2019-03-27T08:32:02.287Z,1026.29
2019-03-27T08:33:02.224Z,1026.25
2019-03-27T08:34:02.233Z,1026.33
2019-03-27T08:35:02.211Z,1026.25
2019-03-27T08:36:02.218Z,1026.26
2019-03-27T08:37:02.214Z,1026.29
2019-03-27T08:38:02.170Z,1026.29
2019-03-27T08:39:02.172Z,1026.32
2019-03-27T08:40:02.148Z,1026.32
2019-03-27T08:41:02.161Z,1026.32
2019-03-27T08:42:02.181Z,1026.31
2019-03-27T08:43:02.152Z,1026.35
2019-03-27T08:44:02.116Z,1026.31
2019-03-27T08:45:02.093Z,1026.33
2019-03-27T08:46:02.093Z,1026.34
2019-03-27T08:47:02.074Z,1026.32
2019-03-27T08:48:02.078Z,1026.34
2019-03-27T08:49:02.054Z,1026.30
2019-03-27T08:50:02.045Z,1026.33
2019-03-27T08:51:02.025Z,1026.35
2019-03-27T08:52:02.591Z,1026.38
2019-03-27T08:53:02.033Z,1026.25
2019-03-27T08:54:02.090Z,1026.34
2019-03-27T08:55:01.994Z,1026.35
2019-03-27T08:56:01.996Z,1026.37
2019-03-27T08:57:01.969Z,1026.39
2019-03-27T08:58:01.966Z,1026.42
2019-03-27T08:59:01.966Z,1026.39
2019-03-27T09:00:02.871Z,1026.45
2019-03-27T09:01:01.928Z,1026.45
2019-03-27T09:02:01.931Z,1026.46
2019-03-27T09:03:03.455Z,1026.48
2019-03-27T09:04:01.886Z,1026.46
2019-03-27T09:05:01.880Z,1026.47
2019-03-27T09:06:12.268Z,1026.49
2019-03-27T09:07:16.033Z,1026.49
2019-03-27T09:08:14.246Z,1026.44
2019-03-27T09:09:15.618Z,1026.46
2019-03-27T09:10:18.284Z,1026.45
2019-03-27T09:12:15.330Z,1026.54
2019-03-27T09:13:01.810Z,1026.52
2019-03-27T09:14:01.774Z,1026.53
2019-03-27T09:15:01.760Z,1026.57
2019-03-27T09:16:01.748Z,1026.59
2019-03-27T09:17:01.778Z,1026.56
2019-03-27T09:18:01.786Z,1026.54
2019-03-27T09:19:01.733Z,1026.53
2019-03-27T09:20:01.732Z,1026.57
2019-03-27T09:21:01.697Z,1026.52
2019-03-27T09:22:01.710Z,1026.53
2019-03-27T09:23:01.699Z,1026.52
2019-03-27T09:24:03.046Z,1026.50
2019-03-27T09:25:01.652Z,1026.52
2019-03-27T09:26:01.666Z,1026.55
2019-03-27T09:27:01.635Z,1026.56
2019-03-27T09:28:01.637Z,1026.53
2019-03-27T09:29:01.616Z,1026.53
2019-03-27T09:30:01.643Z,1026.54
2019-03-27T09:31:01.604Z,1026.52
2019-03-27T09:32:01.580Z,1026.49
2019-03-27T09:33:01.598Z,1026.53
2019-03-27T09:34:01.568Z,1026.51
2019-03-27T09:35:01.559Z,1026.55
2019-03-27T09:36:01.656Z,1026.56
2019-03-27T09:37:01.551Z,1026.52
2019-03-27T09:38:01.636Z,1026.55
2019-03-27T09:39:01.513Z,1026.58
2019-03-27T09:40:01.518Z,1026.58
2019-03-27T09:41:01.488Z,1026.59
2019-03-27T09:42:01.686Z,1026.55
2019-03-27T09:43:01.473Z,1026.55
2019-03-27T09:44:01.484Z,1026.59
2019-03-27T09:45:01.450Z,1026.58
2019-03-27T09:46:01.432Z,1026.62
2019-03-27T09:47:01.410Z,1026.63
2019-03-27T09:48:03.432Z,1026.58
2019-03-27T09:49:01.416Z,1026.63
2019-03-27T09:50:01.395Z,1026.59
2019-03-27T09:51:01.386Z,1026.60
2019-03-27T09:52:01.380Z,1026.58
2019-03-27T09:53:01.365Z,1026.57
2019-03-27T09:54:01.363Z,1026.57
2019-03-27T09:55:01.846Z,1026.57
2019-03-27T09:56:01.324Z,1026.55
2019-03-27T09:57:01.338Z,1026.57
2019-03-27T09:58:01.327Z,1026.57
2019-03-27T09:59:01.306Z,1026.55
2019-03-27T10:00:01.304Z,1026.53
2019-03-27T10:01:01.292Z,1026.53
2019-03-27T10:02:01.268Z,1026.51
2019-03-27T10:03:01.263Z,1026.57
2019-03-27T10:04:01.256Z,1026.55
2019-03-27T10:05:01.527Z,1026.55
2019-03-27T10:06:01.230Z,1026.50
2019-03-27T10:07:01.193Z,1026.58
2019-03-27T10:08:01.228Z,1026.49
2019-03-27T10:09:01.222Z,1026.48
2019-03-27T10:10:01.192Z,1026.53
2019-03-27T10:11:01.165Z,1026.50
2019-03-27T10:12:01.141Z,1026.54
2019-03-27T10:13:01.143Z,1026.50
2019-03-27T10:14:01.269Z,1026.54
2019-03-27T10:15:01.116Z,1026.54
2019-03-27T10:16:01.108Z,1026.54
2019-03-27T10:17:01.088Z,1026.57
2019-03-27T10:18:01.089Z,1026.60
2019-03-27T10:19:01.092Z,1026.62
2019-03-27T10:20:03.840Z,1026.61
2019-03-27T10:21:01.047Z,1026.56
2019-03-27T10:22:01.039Z,1026.55
2019-03-27T10:23:01.044Z,1026.59
2019-03-27T10:24:01.025Z,1026.60
2019-03-27T10:25:01.025Z,1026.60
2019-03-27T10:26:01.014Z,1026.58
2019-03-27T10:27:00.993Z,1026.54
2019-03-27T10:28:00.965Z,1026.53
2019-03-27T10:29:00.986Z,1026.51
2019-03-27T10:30:00.959Z,1026.51
2019-03-27T10:31:00.959Z,1026.55
2019-03-27T10:32:00.931Z,1026.52
2019-03-27T10:33:00.930Z,1026.54
2019-03-27T10:34:00.914Z,1026.50
2019-03-27T10:35:00.914Z,1026.53
2019-03-27T10:36:00.888Z,1026.47
2019-03-27T10:37:00.927Z,1026.47
2019-03-27T10:38:00.862Z,1026.51
2019-03-27T10:39:00.881Z,1026.51
2019-03-27T10:40:00.838Z,1026.57
2019-03-27T10:41:00.833Z,1026.49
2019-03-27T10:42:00.820Z,1026.47
2019-03-27T10:43:00.821Z,1026.48
2019-03-27T10:44:00.818Z,1026.51
2019-03-27T10:45:00.789Z,1026.50
2019-03-27T10:46:00.783Z,1026.51
2019-03-27T10:47:00.789Z,1026.52
2019-03-27T10:48:01.052Z,1026.55
2019-03-27T10:49:00.764Z,1026.51
2019-03-27T10:50:01.719Z,1026.49
2019-03-27T10:51:00.714Z,1026.51
2019-03-27T10:52:00.705Z,1026.47
2019-03-27T10:53:00.698Z,1026.52
2019-03-27T10:54:00.722Z,1026.47
2019-03-27T10:55:00.699Z,1026.46
2019-03-27T10:56:00.667Z,1026.48
2019-03-27T10:57:00.666Z,1026.49
2019-03-27T10:58:00.641Z,1026.45
2019-03-27T10:59:00.744Z,1026.46
2019-03-27T11:00:00.626Z,1026.48
2019-03-27T11:01:00.613Z,1026.49
2019-03-27T11:02:00.596Z,1026.49
2019-03-27T11:03:00.586Z,1026.49
2019-03-27T11:04:00.627Z,1026.51
2019-03-27T11:05:01.720Z,1026.47
2019-03-27T11:06:00.562Z,1026.48
2019-03-27T11:07:00.548Z,1026.52
2019-03-27T11:08:00.535Z,1026.53
2019-03-27T11:09:00.545Z,1026.51
2019-03-27T11:10:00.524Z,1026.49
2019-03-27T11:11:00.502Z,1026.53
2019-03-27T11:12:00.507Z,1026.52
2019-03-27T11:13:00.478Z,1026.52
2019-03-27T11:14:00.492Z,1026.55
2019-03-27T11:15:00.534Z,1026.57
2019-03-27T11:16:00.475Z,1026.56
2019-03-27T11:17:00.463Z,1026.53
2019-03-27T11:18:00.436Z,1026.55
2019-03-27T11:19:00.423Z,1026.49
2019-03-27T11:20:00.436Z,1026.52
2019-03-27T11:21:00.403Z,1026.48
2019-03-27T11:22:00.386Z,1026.55
2019-03-27T11:23:00.370Z,1026.53
2019-03-27T11:24:00.376Z,1026.55
2019-03-27T11:25:00.385Z,1026.59
2019-03-27T11:26:00.350Z,1026.54
2019-03-27T11:27:00.356Z,1026.56
2019-03-27T11:28:00.321Z,1026.58
2019-03-27T11:29:00.327Z,1026.56
2019-03-27T11:30:00.392Z,1026.53
2019-03-27T11:31:00.312Z,1026.55
2019-03-27T11:32:00.277Z,1026.53
2019-03-27T11:33:00.263Z,1026.54
2019-03-27T11:34:00.277Z,1026.59
2019-03-27T11:35:00.393Z,1026.56
2019-03-27T11:36:00.231Z,1026.55
2019-03-27T11:37:00.220Z,1026.53
2019-03-27T11:38:00.215Z,1026.50
2019-03-27T11:39:00.215Z,1026.53
2019-03-27T11:40:00.375Z,1026.57
2019-03-27T11:41:00.175Z,1026.57
2019-03-27T11:42:00.902Z,1026.48
2019-03-27T11:43:00.151Z,1026.52
2019-03-27T11:44:00.151Z,1026.54
2019-03-27T11:45:00.347Z,1026.50
2019-03-27T11:46:00.129Z,1026.56
2019-03-27T11:47:00.118Z,1026.57
2019-03-27T11:48:00.098Z,1026.54
2019-03-27T11:49:00.090Z,1026.53
2019-03-27T11:50:00.350Z,1026.53
2019-03-27T11:51:00.076Z,1026.55
2019-03-27T11:52:00.053Z,1026.52
2019-03-27T11:53:00.082Z,1026.48
2019-03-27T11:54:00.036Z,1026.47
2019-03-27T11:55:00.346Z,1026.48
2019-03-27T11:56:03.159Z,1026.45
2019-03-27T11:57:00.020Z,1026.45
2019-03-27T11:57:59.994Z,1026.44
2019-03-27T11:58:59.997Z,1026.41
2019-03-27T12:00:00.275Z,1026.42
2019-03-27T12:00:59.993Z,1026.43
2019-03-27T12:01:59.955Z,1026.47
2019-03-27T12:02:59.949Z,1026.51
2019-03-27T12:03:59.937Z,1026.49
2019-03-27T12:04:59.929Z,1026.51
2019-03-27T12:05:59.922Z,1026.54